createdAt,value
2018-12-14T00:02:04.959Z,9.80
2018-12-14T00:06:43.564Z,10.67
2018-12-14T00:11:22.474Z,10.20
2018-12-14T00:16:01.182Z,9.17
2018-12-14T00:20:39.967Z,9.20
2018-12-14T00:25:18.806Z,9.53
2018-12-14T00:29:57.700Z,10.30
2018-12-14T00:34:36.388Z,9.63
2018-12-14T00:39:15.303Z,9.83
2018-12-14T00:43:54.135Z,9.27
2018-12-14T00:48:32.972Z,9.93
2018-12-14T00:53:11.633Z,10.37
2018-12-14T00:57:50.266Z,9.70
2018-12-14T01:02:29.211Z,10.50
2018-12-14T01:07:08.063Z,10.30
2018-12-14T01:11:46.950Z,10.67
2018-12-14T01:16:25.741Z,10.60
2018-12-14T01:21:04.479Z,9.33
2018-12-14T01:25:43.160Z,10.80
2018-12-14T01:30:21.859Z,9.73
2018-12-14T01:35:00.708Z,8.20
2018-12-14T01:39:39.731Z,9.87
2018-12-14T01:44:18.604Z,9.87
2018-12-14T01:48:57.306Z,10.13
2018-12-14T01:53:36.108Z,10.10
2018-12-14T01:58:14.868Z,10.10
2018-12-14T02:02:53.527Z,8.60
2018-12-14T02:07:32.273Z,9.63
2018-12-14T02:12:11.537Z,9.33
2018-12-14T02:16:50.421Z,9.57
2018-12-14T02:21:29.232Z,8.17
2018-12-14T02:26:08.115Z,9.00
2018-12-14T02:30:46.993Z,9.53
2018-12-14T02:35:25.909Z,9.57
2018-12-14T02:40:04.802Z,8.73
2018-12-14T02:44:43.591Z,8.43
2018-12-14T02:49:22.228Z,9.23
2018-12-14T02:54:00.957Z,8.90
2018-12-14T02:58:39.572Z,9.77
2018-12-14T03:03:18.532Z,9.30
2018-12-14T03:07:57.440Z,9.17
2018-12-14T03:12:36.145Z,9.00
2018-12-14T03:17:15.301Z,10.00
2018-12-14T03:21:54.094Z,8.37
2018-12-14T03:26:32.876Z,9.23
2018-12-14T03:31:11.535Z,6.97
2018-12-14T03:35:50.292Z,10.37
2018-12-14T03:40:29.081Z,9.90
2018-12-14T03:45:07.954Z,10.40
2018-12-14T03:49:46.709Z,9.67
2018-12-14T03:54:25.540Z,9.80
2018-12-14T03:59:04.296Z,9.17
2018-12-14T04:03:43.173Z,10.50
2018-12-14T04:08:21.872Z,8.20
2018-12-14T04:13:00.699Z,9.60
2018-12-14T04:17:39.344Z,9.93
2018-12-14T04:22:18.227Z,10.03
2018-12-14T04:26:56.957Z,10.37
2018-12-14T04:31:35.860Z,10.37
2018-12-14T04:36:14.561Z,10.73
2018-12-14T04:40:53.434Z,10.30
2018-12-14T04:45:32.249Z,10.27
2018-12-14T04:50:11.152Z,10.73
2018-12-14T04:54:49.962Z,11.27
2018-12-14T04:59:28.670Z,10.60
2018-12-14T05:04:07.396Z,11.60
2018-12-14T05:08:46.198Z,11.20
2018-12-14T05:13:25.009Z,11.20
2018-12-14T05:18:03.699Z,11.70
2018-12-14T05:22:42.389Z,10.00
2018-12-14T05:27:21.300Z,11.07
2018-12-14T05:32:00.034Z,11.10
2018-12-14T05:36:38.728Z,10.67
2018-12-14T05:41:17.640Z,11.73
2018-12-14T05:45:56.448Z,11.27
2018-12-14T05:50:35.192Z,11.47
2018-12-14T05:55:14.037Z,10.37
2018-12-14T05:59:52.880Z,10.63
2018-12-14T06:04:31.637Z,10.97
2018-12-14T06:09:11.837Z,10.03
2018-12-14T06:13:50.695Z,10.90
2018-12-14T06:18:29.612Z,11.73
2018-12-14T06:23:08.893Z,10.47
2018-12-14T06:27:47.657Z,9.77
2018-12-14T06:32:26.515Z,9.60
2018-12-14T06:37:05.621Z,11.30
2018-12-14T06:41:44.700Z,10.77
2018-12-14T06:46:23.345Z,11.13
2018-12-14T06:51:02.500Z,10.73
2018-12-14T06:55:41.320Z,11.00
2018-12-14T07:00:20.327Z,11.80
2018-12-14T07:04:59.483Z,11.40
2018-12-14T07:09:38.426Z,11.23
2018-12-14T07:14:17.347Z,11.20
2018-12-14T07:18:56.012Z,12.20
2018-12-14T07:23:34.853Z,11.70
2018-12-14T07:28:13.575Z,11.07
2018-12-14T07:32:52.499Z,11.33
2018-12-14T07:37:31.339Z,12.93
2018-12-14T07:42:10.177Z,11.90
2018-12-14T07:46:49.011Z,12.00
2018-12-14T07:51:28.079Z,11.70
2018-12-14T07:56:06.864Z,12.07
2018-12-14T08:00:45.775Z,12.53
2018-12-14T08:05:24.612Z,11.13
2018-12-14T08:10:03.823Z,11.90
2018-12-14T08:14:42.736Z,11.27
2018-12-14T08:19:21.343Z,13.03
2018-12-14T08:24:00.171Z,12.67
2018-12-14T08:28:38.941Z,12.10
2018-12-14T08:33:17.536Z,11.37
2018-12-14T08:37:56.237Z,12.50
2018-12-14T08:42:35.027Z,11.60
2018-12-14T08:47:13.904Z,12.30
2018-12-14T08:51:52.699Z,11.87
2018-12-14T08:56:31.738Z,11.67
2018-12-14T09:01:10.488Z,11.10
2018-12-14T09:05:49.303Z,10.30
2018-12-14T09:10:28.011Z,12.60
2018-12-14T09:15:06.697Z,12.57
2018-12-14T09:19:45.523Z,12.60
2018-12-14T09:24:24.133Z,11.77
2018-12-14T09:29:03.776Z,11.60
2018-12-14T09:33:42.448Z,12.80
2018-12-14T09:38:21.284Z,13.13
2018-12-14T09:43:00.117Z,12.37
2018-12-14T09:47:38.788Z,12.73
2018-12-14T09:52:17.446Z,12.20
2018-12-14T09:56:56.232Z,12.77
2018-12-14T10:01:35.049Z,11.50
2018-12-14T10:06:15.753Z,12.73
2018-12-14T10:10:54.936Z,10.87
2018-12-14T10:15:33.701Z,9.90
2018-12-14T10:20:12.438Z,9.53
2018-12-14T10:24:51.215Z,12.63
2018-12-14T10:29:30.003Z,12.37
2018-12-14T10:34:08.956Z,12.27
2018-12-14T10:38:47.793Z,11.00
2018-12-14T10:43:26.437Z,10.33
2018-12-14T10:48:05.203Z,11.03
2018-12-14T10:52:43.923Z,11.23
2018-12-14T10:57:22.796Z,11.80
2018-12-14T11:02:01.557Z,11.30
2018-12-14T11:06:40.264Z,11.20
2018-12-14T11:11:18.952Z,11.60
2018-12-14T11:15:57.809Z,12.00
2018-12-14T11:20:36.644Z,11.73
2018-12-14T11:25:15.464Z,11.83
2018-12-14T11:29:54.329Z,11.77
2018-12-14T11:34:33.278Z,12.00
2018-12-14T11:39:12.151Z,11.60
2018-12-14T11:43:50.908Z,11.97
2018-12-14T11:48:29.670Z,12.40
2018-12-14T11:53:08.320Z,12.77
2018-12-14T11:57:47.007Z,11.50
2018-12-14T12:02:25.899Z,13.33
2018-12-14T12:07:04.729Z,11.63
2018-12-14T12:11:43.413Z,11.73
2018-12-14T12:16:22.211Z,11.03
2018-12-14T12:21:01.076Z,12.43
2018-12-14T12:25:39.770Z,10.80
2018-12-14T12:30:18.628Z,12.13
2018-12-14T12:34:57.433Z,11.57
2018-12-14T12:39:36.308Z,11.03
2018-12-14T12:44:14.908Z,12.07
2018-12-14T12:48:54.121Z,11.40
2018-12-14T12:53:32.919Z,12.67
2018-12-14T12:58:11.748Z,12.37
2018-12-14T13:02:50.760Z,12.50
2018-12-14T13:07:29.632Z,11.97
2018-12-14T13:12:08.493Z,11.37
2018-12-14T13:16:47.177Z,11.97
2018-12-14T13:21:26.148Z,11.50
2018-12-14T13:26:04.968Z,12.50
2018-12-14T13:30:43.958Z,12.53
2018-12-14T13:35:24.780Z,11.40
2018-12-14T13:40:05.093Z,11.20
2018-12-14T13:44:46.654Z,11.80
2018-12-14T13:49:24.874Z,12.17
2018-12-14T13:54:03.516Z,12.33
2018-12-14T13:58:43.840Z,12.10
2018-12-14T14:03:22.744Z,14.07
2018-12-14T14:08:01.347Z,14.37
2018-12-14T14:12:40.153Z,12.37
2018-12-14T14:17:18.885Z,12.67
2018-12-14T14:21:57.616Z,12.37
2018-12-14T14:26:36.420Z,12.47
2018-12-14T14:31:15.280Z,12.60
2018-12-14T14:35:54.239Z,13.77
2018-12-14T14:40:32.897Z,12.47
2018-12-14T14:45:11.816Z,12.30
2018-12-14T14:49:50.541Z,13.23
2018-12-14T14:54:29.729Z,11.20
2018-12-14T14:59:08.552Z,11.93
2018-12-14T15:03:47.367Z,12.07
2018-12-14T15:08:26.188Z,12.20
2018-12-14T15:13:04.928Z,11.47
2018-12-14T15:17:43.677Z,12.57
2018-12-14T15:22:22.421Z,13.07
2018-12-14T15:27:01.183Z,12.30
2018-12-14T15:31:41.477Z,13.03
2018-12-14T15:36:20.108Z,13.30
2018-12-14T15:40:58.893Z,13.37
2018-12-14T15:45:37.736Z,13.27
2018-12-14T15:50:16.522Z,13.37
2018-12-14T15:54:55.323Z,13.80
2018-12-14T15:59:34.011Z,12.93
2018-12-14T16:04:12.843Z,12.83
2018-12-14T16:08:51.482Z,11.77
2018-12-14T16:13:30.138Z,14.87
2018-12-14T16:18:09.213Z,12.53
2018-12-14T16:22:48.058Z,12.57
2018-12-14T16:27:26.849Z,12.97
2018-12-14T16:32:05.605Z,13.50
2018-12-14T16:36:44.232Z,12.33
2018-12-14T16:41:23.060Z,13.53
2018-12-14T16:46:01.808Z,13.43
2018-12-14T16:50:40.685Z,14.63
2018-12-14T16:55:19.408Z,14.63
2018-12-14T16:59:58.199Z,14.70
2018-12-14T17:04:37.077Z,14.40
2018-12-14T17:09:15.738Z,15.03
2018-12-14T17:13:54.455Z,14.60
2018-12-14T17:18:33.364Z,14.60
2018-12-14T17:23:12.350Z,14.17
2018-12-14T17:27:51.760Z,13.90
2018-12-14T17:32:30.678Z,13.30
2018-12-14T17:37:09.558Z,14.73
2018-12-14T17:41:48.318Z,14.23
2018-12-14T17:46:28.233Z,14.13
2018-12-14T17:51:07.441Z,15.27
2018-12-14T17:55:46.209Z,13.87
2018-12-14T18:00:25.003Z,14.37
2018-12-14T18:05:04.301Z,14.43
2018-12-14T18:09:43.234Z,21.30
2018-12-14T18:14:22.305Z,14.73
2018-12-14T18:19:01.741Z,14.90
2018-12-14T18:23:40.730Z,15.07
2018-12-14T18:28:19.736Z,15.93
2018-12-14T18:32:58.867Z,18.63
2018-12-14T18:37:37.630Z,15.97
2018-12-14T18:42:16.436Z,16.37
2018-12-14T18:46:55.294Z,18.00
2018-12-14T18:51:34.147Z,15.13
2018-12-14T18:56:12.853Z,15.43
2018-12-14T19:00:51.722Z,15.03
2018-12-14T19:05:30.682Z,15.73
2018-12-14T19:10:09.387Z,14.87
2018-12-14T19:14:48.096Z,14.10
2018-12-14T19:19:26.960Z,15.70
2018-12-14T19:24:05.753Z,19.97
2018-12-14T19:28:44.441Z,18.17
2018-12-14T19:33:23.176Z,14.50
2018-12-14T19:38:01.848Z,12.77
2018-12-14T19:42:40.680Z,12.23
2018-12-14T19:47:19.658Z,11.47
2018-12-14T19:51:58.799Z,12.17
2018-12-14T19:56:37.503Z,12.67
2018-12-14T20:01:16.683Z,13.37
2018-12-14T20:05:55.584Z,11.87
2018-12-14T20:10:34.360Z,11.57
2018-12-14T20:15:13.048Z,12.10
2018-12-14T20:19:52.092Z,12.23
2018-12-14T20:24:30.807Z,13.97
2018-12-14T20:29:09.638Z,12.80
2018-12-14T20:33:48.224Z,12.63
2018-12-14T20:38:27.188Z,12.20
2018-12-14T20:43:05.940Z,11.70
2018-12-14T20:47:44.727Z,12.73
2018-12-14T20:52:23.453Z,12.33
2018-12-14T20:57:02.291Z,13.63
2018-12-14T21:01:41.030Z,14.40
2018-12-14T21:06:19.738Z,13.47
2018-12-14T21:10:58.408Z,13.03
2018-12-14T21:15:37.045Z,13.27
2018-12-14T21:20:15.732Z,14.40
2018-12-14T21:24:54.591Z,15.83
2018-12-14T21:29:33.333Z,14.93
2018-12-14T21:34:12.280Z,15.63
2018-12-14T21:38:51.144Z,14.03
2018-12-14T21:43:29.952Z,13.87
2018-12-14T21:48:08.609Z,13.43
2018-12-14T21:52:47.436Z,14.30
2018-12-14T21:57:26.309Z,13.67
2018-12-14T22:02:05.065Z,14.60
2018-12-14T22:06:43.841Z,12.63
2018-12-14T22:11:22.868Z,14.53
2018-12-14T22:16:01.631Z,14.70
2018-12-14T22:20:40.400Z,12.93
2018-12-14T22:25:19.268Z,13.10
2018-12-14T22:29:59.024Z,14.17
2018-12-14T22:34:37.937Z,13.13
2018-12-14T22:39:17.049Z,13.13
2018-12-14T22:43:55.656Z,12.30
2018-12-14T22:48:34.809Z,12.90
2018-12-14T22:53:13.782Z,13.50
2018-12-14T22:57:52.512Z,13.20
2018-12-14T23:02:31.264Z,13.57
2018-12-14T23:07:09.993Z,13.20
2018-12-14T23:11:48.862Z,12.77
2018-12-14T23:16:27.748Z,13.50
2018-12-14T23:21:06.372Z,13.10
2018-12-14T23:25:45.270Z,13.20
2018-12-14T23:30:24.072Z,14.00
2018-12-14T23:35:02.796Z,12.70
2018-12-14T23:39:41.556Z,12.50
2018-12-14T23:44:20.164Z,12.73
2018-12-14T23:48:59.053Z,13.20
2018-12-14T23:53:37.823Z,13.00
2018-12-14T23:58:16.750Z,13.60
